sensor_id;sensor_type;location;lat;lon;timestamp;pressure;altitude;pressure_sealevel;temperature;humidity
39449;BME280;25151;45.566;9.382;2023-12-04T06:49:09;100415.81;;;19.06;57.21
39449;BME280;25151;45.566;9.382;2023-12-04T06:51:37;100410.19;;;19.10;57.33
39449;BME280;25151;45.566;9.382;2023-12-04T06:54:03;100414.13;;;19.12;57.29
39449;BME280;25151;45.566;9.382;2023-12-04T06:56:30;100428.84;;;19.16;57.14
39449;BME280;25151;45.566;9.382;2023-12-04T06:58:57;100429.56;;;19.21;57.34
39449;BME280;25151;45.566;9.382;2023-12-04T07:01:24;100430.72;;;19.23;57.37
39449;BME280;25151;45.566;9.382;2023-12-04T07:03:51;100439.03;;;19.27;57.09
39449;BME280;25151;45.566;9.382;2023-12-04T07:06:17;100435.41;;;19.30;57.22
39449;BME280;25151;45.566;9.382;2023-12-04T07:08:47;100438.94;;;19.34;57.25
39449;BME280;25151;45.566;9.382;2023-12-04T07:11:15;100440.88;;;19.37;57.06
39449;BME280;25151;45.566;9.382;2023-12-04T07:13:42;100443.63;;;19.40;57.05
39449;BME280;25151;45.566;9.382;2023-12-04T07:16:09;100446.34;;;19.44;56.99
39449;BME280;25151;45.566;9.382;2023-12-04T07:18:36;100440.66;;;19.48;56.98
39449;BME280;25151;45.566;9.382;2023-12-04T07:21:03;100435.03;;;19.51;56.85
39449;BME280;25151;45.566;9.382;2023-12-04T07:23:29;100438.53;;;19.55;56.97
39449;BME280;25151;45.566;9.382;2023-12-04T07:25:56;100437.28;;;19.60;56.86
39449;BME280;25151;45.566;9.382;2023-12-04T07:28:22;100424.84;;;19.64;56.88
39449;BME280;25151;45.566;9.382;2023-12-04T07:30:48;100435.53;;;19.70;56.75
39449;BME280;25151;45.566;9.382;2023-12-04T07:33:14;100438.25;;;19.73;56.74
39449;BME280;25151;45.566;9.382;2023-12-04T07:35:41;100441.34;;;19.79;56.53
39449;BME280;25151;45.566;9.382;2023-12-04T07:38:07;100434.44;;;19.83;56.41
39449;BME280;25151;45.566;9.382;2023-12-04T07:40:33;100418.38;;;19.87;56.17
39449;BME280;25151;45.566;9.382;2023-12-04T07:42:59;100420.69;;;19.93;56.06
39449;BME280;25151;45.566;9.382;2023-12-04T07:45:25;100431.81;;;19.96;56.22
39449;BME280;25151;45.566;9.382;2023-12-04T07:47:53;100419.75;;;19.99;55.97
39449;BME280;25151;45.566;9.382;2023-12-04T07:50:20;100423.69;;;20.02;56.07
39449;BME280;25151;45.566;9.382;2023-12-04T07:52:47;100429.22;;;20.05;55.97
39449;BME280;25151;45.566;9.382;2023-12-04T07:55:15;100434.81;;;20.05;56.03
39449;BME280;25151;45.566;9.382;2023-12-04T07:57:42;100444.38;;;20.08;55.70
39449;BME280;25151;45.566;9.382;2023-12-04T08:00:10;100434.75;;;20.09;55.88
39449;BME280;25151;45.566;9.382;2023-12-04T08:02:38;100439.91;;;20.10;55.79
39449;BME280;25151;45.566;9.382;2023-12-04T08:05:06;100433.53;;;20.10;55.70
39449;BME280;25151;45.566;9.382;2023-12-04T08:07:32;100440.63;;;20.14;55.66
39449;BME280;25151;45.566;9.382;2023-12-04T08:09:58;100441.78;;;20.17;55.65
39449;BME280;25151;45.566;9.382;2023-12-04T08:12:27;100439.44;;;20.16;55.60
39449;BME280;25151;45.566;9.382;2023-12-04T08:14:53;100433.00;;;20.15;55.75
39449;BME280;25151;45.566;9.382;2023-12-04T08:17:21;100416.22;;;20.15;55.47
39449;BME280;25151;45.566;9.382;2023-12-04T08:19:47;100433.84;;;20.16;55.60
39449;BME280;25151;45.566;9.382;2023-12-04T08:22:12;100438.19;;;20.17;55.36
39449;BME280;25151;45.566;9.382;2023-12-04T08:24:39;100441.78;;;20.17;55.46
39449;BME280;25151;45.566;9.382;2023-12-04T08:27:08;100435.41;;;20.17;55.43
39449;BME280;25151;45.566;9.382;2023-12-04T08:29:35;100428.94;;;20.20;55.17
39449;BME280;25151;45.566;9.382;2023-12-04T08:32:01;100422.53;;;20.19;54.96
39449;BME280;25151;45.566;9.382;2023-12-04T08:34:27;100411.34;;;20.19;55.36
39449;BME280;25151;45.566;9.382;2023-12-04T08:36:52;100403.75;;;20.20;54.96
39449;BME280;25151;45.566;9.382;2023-12-04T08:41:53;100366.91;;;20.21;54.99
39449;BME280;25151;45.566;9.382;2023-12-04T08:44:19;100366.44;;;20.23;55.15
39449;BME280;25151;45.566;9.382;2023-12-04T08:46:44;100367.69;;;20.22;55.24
39449;BME280;25151;45.566;9.382;2023-12-04T08:49:10;100380.44;;;20.23;54.97
39449;BME280;25151;45.566;9.382;2023-12-04T08:51:36;100392.81;;;20.25;54.75
39449;BME280;25151;45.566;9.382;2023-12-04T08:54:01;100395.16;;;20.27;55.07
39449;BME280;25151;45.566;9.382;2023-12-04T08:56:29;100396.31;;;20.29;54.99
39449;BME280;25151;45.566;9.382;2023-12-04T08:58:55;100384.66;;;20.31;54.80
39449;BME280;25151;45.566;9.382;2023-12-04T09:01:20;100400.63;;;20.34;54.93
39449;BME280;25151;45.566;9.382;2023-12-04T09:03:46;100408.16;;;20.37;54.71
39449;BME280;25151;45.566;9.382;2023-12-04T09:06:11;100419.69;;;20.39;54.98
39449;BME280;25151;45.566;9.382;2023-12-04T09:14:14;100401.75;;;20.56;54.66
39449;BME280;25151;45.566;9.382;2023-12-04T09:19:16;100397.66;;;20.61;54.82
39449;BME280;25151;45.566;9.382;2023-12-04T09:21:42;100391.25;;;20.60;54.55
39449;BME280;25151;45.566;9.382;2023-12-04T09:24:09;100400.00;;;20.62;54.86
39449;BME280;25151;45.566;9.382;2023-12-04T09:26:35;100396.00;;;20.63;54.80
39449;BME280;25151;45.566;9.382;2023-12-04T09:29:00;100398.34;;;20.65;54.69
39449;BME280;25151;45.566;9.382;2023-12-04T09:31:26;100395.91;;;20.67;54.84
39449;BME280;25151;45.566;9.382;2023-12-04T09:33:51;100383.88;;;20.67;54.79
39449;BME280;25151;45.566;9.382;2023-12-04T09:36:17;100379.88;;;20.68;54.77
39449;BME280;25151;45.566;9.382;2023-12-04T09:38:43;100383.81;;;20.70;54.60
39449;BME280;25151;45.566;9.382;2023-12-04T09:41:10;100384.59;;;20.71;54.87
39449;BME280;25151;45.566;9.382;2023-12-04T09:43:37;100385.41;;;20.71;54.80
39449;BME280;25151;45.566;9.382;2023-12-04T09:46:03;100387.75;;;20.73;54.69
39449;BME280;25151;45.566;9.382;2023-12-04T09:48:31;100388.22;;;20.71;54.74
39449;BME280;25151;45.566;9.382;2023-12-04T09:50:57;100394.16;;;20.73;54.94
39449;BME280;25151;45.566;9.382;2023-12-04T09:53:24;100397.41;;;20.72;54.61
39449;BME280;25151;45.566;9.382;2023-12-04T09:55:51;100393.38;;;20.73;55.02
39449;BME280;25151;45.566;9.382;2023-12-04T09:58:24;100391.78;;;20.72;54.89
39449;BME280;25151;45.566;9.382;2023-12-04T10:00:54;100388.53;;;20.73;55.20
39449;BME280;25151;45.566;9.382;2023-12-04T10:03:20;100394.16;;;20.73;55.00
39449;BME280;25151;45.566;9.382;2023-12-04T10:05:46;100398.97;;;20.73;55.17
39449;BME280;25151;45.566;9.382;2023-12-04T10:08:12;100408.94;;;20.74;55.21
39449;BME280;25151;45.566;9.382;2023-12-04T10:10:38;100394.94;;;20.74;55.18
39449;BME280;25151;45.566;9.382;2023-12-04T10:13:04;100389.34;;;20.74;55.32
39449;BME280;25151;45.566;9.382;2023-12-04T10:15:30;100402.13;;;20.75;55.18
39449;BME280;25151;45.566;9.382;2023-12-04T10:17:56;100398.53;;;20.74;55.37
39449;BME280;25151;45.566;9.382;2023-12-04T10:20:21;100394.06;;;20.77;54.79
39449;BME280;25151;45.566;9.382;2023-12-04T10:23:00;100388.63;;;20.70;54.57
39449;BME280;25151;45.566;9.382;2023-12-04T10:25:29;100370.78;;;20.63;54.42
39449;BME280;25151;45.566;9.382;2023-12-04T10:28:15;100358.09;;;20.59;54.48
39449;BME280;25151;45.566;9.382;2023-12-04T10:30:41;100364.09;;;20.57;54.28
39449;BME280;25151;45.566;9.382;2023-12-04T10:33:08;100349.75;;;20.55;54.39
39449;BME280;25151;45.566;9.382;2023-12-04T10:35:35;100350.97;;;20.54;54.58
39449;BME280;25151;45.566;9.382;2023-12-04T10:38:07;100341.69;;;20.57;54.41
39449;BME280;25151;45.566;9.382;2023-12-04T10:40:36;100340.91;;;20.57;54.23
39449;BME280;25151;45.566;9.382;2023-12-04T10:43:23;100332.06;;;20.58;54.50
39449;BME280;25151;45.566;9.382;2023-12-04T10:45:50;100324.88;;;20.57;54.46
39449;BME280;25151;45.566;9.382;2023-12-04T10:48:18;100314.13;;;20.56;54.10
39449;BME280;25151;45.566;9.382;2023-12-04T10:50:45;100308.94;;;20.54;54.30
39449;BME280;25151;45.566;9.382;2023-12-04T10:53:13;100312.09;;;20.56;54.17
39449;BME280;25151;45.566;9.382;2023-12-04T10:55:40;100296.59;;;20.52;53.96
39449;BME280;25151;45.566;9.382;2023-12-04T10:58:07;100297.47;;;20.49;54.13
39449;BME280;25151;45.566;9.382;2023-12-04T11:00:35;100291.94;;;20.45;54.13
39449;BME280;25151;45.566;9.382;2023-12-04T11:03:07;100284.75;;;20.44;53.99
39449;BME280;25151;45.566;9.382;2023-12-04T11:05:38;100278.78;;;20.42;53.92
39449;BME280;25151;45.566;9.382;2023-12-04T11:08:09;100266.00;;;20.41;53.93
39449;BME280;25151;45.566;9.382;2023-12-04T11:10:45;100260.41;;;20.41;54.09
39449;BME280;25151;45.566;9.382;2023-12-04T11:13:34;100266.00;;;20.41;54.31
39449;BME280;25151;45.566;9.382;2023-12-04T11:16:07;100259.63;;;20.41;54.43
39449;BME280;25151;45.566;9.382;2023-12-04T11:18:36;100246.03;;;20.39;54.16
39449;BME280;25151;45.566;9.382;2023-12-04T11:21:07;100253.25;;;20.40;54.34
39449;BME280;25151;45.566;9.382;2023-12-04T11:23:34;100244.06;;;20.39;54.58
39449;BME280;25151;45.566;9.382;2023-12-04T11:26:00;100239.66;;;20.38;54.43
39449;BME280;25151;45.566;9.382;2023-12-04T11:28:29;100234.50;;;20.37;54.10
39449;BME280;25151;45.566;9.382;2023-12-04T11:30:55;100242.91;;;20.37;54.73
39449;BME280;25151;45.566;9.382;2023-12-04T11:33:21;100239.75;;;20.35;54.86
39449;BME280;25151;45.566;9.382;2023-12-04T11:35:47;100234.16;;;20.35;54.69
39449;BME280;25151;45.566;9.382;2023-12-04T11:38:17;100231.78;;;20.33;54.72
39449;BME280;25151;45.566;9.382;2023-12-04T11:40:43;100226.97;;;20.34;54.89
39449;BME280;25151;45.566;9.382;2023-12-04T11:43:27;100236.59;;;20.33;54.87
39449;BME280;25151;45.566;9.382;2023-12-04T11:46:39;100227.06;;;20.30;54.92
39449;BME280;25151;45.566;9.382;2023-12-04T11:48:40;100215.53;;;20.28;54.90
39449;BME280;25151;45.566;9.382;2023-12-04T11:51:08;100196.69;;;20.29;55.01
39449;BME280;25151;45.566;9.382;2023-12-04T11:53:38;100203.09;;;20.29;55.25
39449;BME280;25151;45.566;9.382;2023-12-04T11:56:08;100196.69;;;20.29;55.39
39449;BME280;25151;45.566;9.382;2023-12-04T11:58:42;100195.91;;;20.28;55.16
39449;BME280;25151;45.566;9.382;2023-12-04T12:01:07;100189.53;;;20.28;55.41
39449;BME280;25151;45.566;9.382;2023-12-04T12:03:33;100182.78;;;20.25;55.31
39449;BME280;25151;45.566;9.382;2023-12-04T12:05:59;100179.19;;;20.25;55.39
39449;BME280;25151;45.566;9.382;2023-12-04T12:08:28;100183.25;;;20.24;55.55
39449;BME280;25151;45.566;9.382;2023-12-04T12:10:54;100178.84;;;20.23;55.55
39449;BME280;25151;45.566;9.382;2023-12-04T12:13:21;100177.72;;;20.20;55.65
39449;BME280;25151;45.566;9.382;2023-12-04T12:15:48;100170.44;;;20.23;55.60
39449;BME280;25151;45.566;9.382;2023-12-04T12:18:16;100173.25;;;20.23;55.37
39449;BME280;25151;45.566;9.382;2023-12-04T12:20:42;100171.34;;;20.20;55.49
39449;BME280;25151;45.566;9.382;2023-12-04T12:23:09;100176.94;;;20.20;55.85
39449;BME280;25151;45.566;9.382;2023-12-04T12:25:36;100175.34;;;20.19;55.91
39449;BME280;25151;45.566;9.382;2023-12-04T12:28:04;100170.66;;;20.16;55.79
39449;BME280;25151;45.566;9.382;2023-12-04T12:30:32;100181.38;;;20.17;56.08
39449;BME280;25151;45.566;9.382;2023-12-04T12:32:58;100182.63;;;20.16;56.01
39449;BME280;25151;45.566;9.382;2023-12-04T12:35:24;100181.84;;;20.16;55.94
39449;BME280;25151;45.566;9.382;2023-12-04T12:37:51;100183.41;;;20.17;55.83
39449;BME280;25151;45.566;9.382;2023-12-04T12:40:21;100180.16;;;20.18;55.92
39449;BME280;25151;45.566;9.382;2023-12-04T12:42:47;100177.03;;;20.16;56.30
39449;BME280;25151;45.566;9.382;2023-12-04T12:45:14;100175.44;;;20.15;56.29
39449;BME280;25151;45.566;9.382;2023-12-04T12:47:44;100174.66;;;20.14;56.37
39449;BME280;25151;45.566;9.382;2023-12-04T12:50:11;100173.84;;;20.14;56.27
39449;BME280;25151;45.566;9.382;2023-12-04T12:52:39;100165.91;;;20.12;56.32
39449;BME280;25151;45.566;9.382;2023-12-04T12:55:06;100160.31;;;20.12;56.25
39449;BME280;25151;45.566;9.382;2023-12-04T12:57:33;100171.50;;;20.12;56.21
39449;BME280;25151;45.566;9.382;2023-12-04T12:59:59;100175.09;;;20.13;56.37
39449;BME280;25151;45.566;9.382;2023-12-04T13:02:26;100171.50;;;20.12;56.59
39449;BME280;25151;45.566;9.382;2023-12-04T13:04:51;100166.78;;;20.09;56.61
39449;BME280;25151;45.566;9.382;2023-12-04T13:07:17;100157.16;;;20.10;56.41
39449;BME280;25151;45.566;9.382;2023-12-04T13:09:45;100160.41;;;20.09;56.54
39449;BME280;25151;45.566;9.382;2023-12-04T13:12:13;100158.00;;;20.07;56.47
39449;BME280;25151;45.566;9.382;2023-12-04T13:14:40;100156.44;;;20.06;56.45
39449;BME280;25151;45.566;9.382;2023-12-04T13:17:09;100154.09;;;20.05;56.34
39449;BME280;25151;45.566;9.382;2023-12-04T13:19:34;100150.50;;;20.04;56.72
39449;BME280;25151;45.566;9.382;2023-12-04T13:22:01;100151.72;;;20.03;56.60
39449;BME280;25151;45.566;9.382;2023-12-04T13:24:28;100146.13;;;20.03;56.79
39449;BME280;25151;45.566;9.382;2023-12-04T13:26:57;100134.91;;;20.03;56.75
39449;BME280;25151;45.566;9.382;2023-12-04T13:29:23;100151.38;;;20.01;56.88
39449;BME280;25151;45.566;9.382;2023-12-04T13:31:49;100145.78;;;20.01;56.72
39449;BME280;25151;45.566;9.382;2023-12-04T13:34:16;100152.63;;;20.00;56.58
39449;BME280;25151;45.566;9.382;2023-12-04T13:36:42;100153.81;;;19.99;56.73
39449;BME280;25151;45.566;9.382;2023-12-04T13:39:08;100143.84;;;19.98;56.62
39449;BME280;25151;45.566;9.382;2023-12-04T13:41:43;100142.28;;;19.97;56.79
39449;BME280;25151;45.566;9.382;2023-12-04T13:44:28;100135.91;;;19.97;56.84
39449;BME280;25151;45.566;9.382;2023-12-04T13:46:55;100139.13;;;19.95;56.63
39449;BME280;25151;45.566;9.382;2023-12-04T13:49:21;100136.78;;;19.94;56.84
39449;BME280;25151;45.566;9.382;2023-12-04T13:51:46;100140.34;;;19.94;56.85
39449;BME280;25151;45.566;9.382;2023-12-04T13:54:14;100138.78;;;19.93;56.58
39449;BME280;25151;45.566;9.382;2023-12-04T13:56:49;100136.78;;;19.94;56.61
39449;BME280;25151;45.566;9.382;2023-12-04T13:59:22;100120.84;;;19.90;56.59
39449;BME280;25151;45.566;9.382;2023-12-04T14:01:49;100115.69;;;19.89;56.66
39449;BME280;25151;45.566;9.382;2023-12-04T14:04:16;100120.06;;;19.90;56.66
39449;BME280;25151;45.566;9.382;2023-12-04T14:06:42;100114.47;;;19.90;56.85
39449;BME280;25151;45.566;9.382;2023-12-04T14:09:08;100107.31;;;19.89;56.63
39449;BME280;25151;45.566;9.382;2023-12-04T14:11:43;100111.34;;;19.88;56.55
39449;BME280;25151;45.566;9.382;2023-12-04T14:14:13;100109.75;;;19.87;56.69
39449;BME280;25151;45.566;9.382;2023-12-04T14:16:38;100106.59;;;19.85;56.77
39449;BME280;25151;45.566;9.382;2023-12-04T14:19:07;100110.97;;;19.86;56.85
39449;BME280;25151;45.566;9.382;2023-12-04T14:21:33;100112.22;;;19.85;56.79
39449;BME280;25151;45.566;9.382;2023-12-04T14:23:59;100119.03;;;19.84;56.81
39449;BME280;25151;45.566;9.382;2023-12-04T14:26:25;100111.41;;;19.84;56.61
39449;BME280;25151;45.566;9.382;2023-12-04T14:28:50;100113.84;;;19.82;56.71
39449;BME280;25151;45.566;9.382;2023-12-04T14:31:16;100121.47;;;19.82;56.85
39449;BME280;25151;45.566;9.382;2023-12-04T14:33:42;100118.66;;;19.82;56.55
39449;BME280;25151;45.566;9.382;2023-12-04T14:36:08;100121.47;;;19.82;56.90
39449;BME280;25151;45.566;9.382;2023-12-04T14:38:33;100116.31;;;19.80;56.54
39449;BME280;25151;45.566;9.382;2023-12-04T14:41:00;100109.94;;;19.80;56.63
39449;BME280;25151;45.566;9.382;2023-12-04T14:43:26;100104.34;;;19.80;56.44
39449;BME280;25151;45.566;9.382;2023-12-04T14:45:51;100109.56;;;19.78;56.49
39449;BME280;25151;45.566;9.382;2023-12-04T14:48:17;100102.75;;;19.79;56.47
39449;BME280;25151;45.566;9.382;2023-12-04T14:50:42;100108.78;;;19.77;56.27
39449;BME280;25151;45.566;9.382;2023-12-04T14:53:09;100099.63;;;19.77;56.39
39449;BME280;25151;45.566;9.382;2023-12-04T14:55:43;100093.22;;;19.76;56.43
39449;BME280;25151;45.566;9.382;2023-12-04T14:58:29;100093.56;;;19.78;56.50
39449;BME280;25151;45.566;9.382;2023-12-04T15:01:26;100085.97;;;19.79;56.30
39449;BME280;25151;45.566;9.382;2023-12-04T15:03:52;100091.56;;;19.79;56.71
39449;BME280;25151;45.566;9.382;2023-12-04T15:06:36;100084.38;;;19.78;56.58
39449;BME280;25151;45.566;9.382;2023-12-04T15:09:06;100085.97;;;19.79;56.77
39449;BME280;25151;45.566;9.382;2023-12-04T15:11:39;100078.78;;;19.78;56.47
39449;BME280;25151;45.566;9.382;2023-12-04T15:14:11;100081.22;;;19.76;56.52
39449;BME280;25151;45.566;9.382;2023-12-04T15:17:02;100080.09;;;19.73;57.01
39449;BME280;25151;45.566;9.382;2023-12-04T15:19:53;100074.06;;;19.75;56.73
39449;BME280;25151;45.566;9.382;2023-12-04T15:22:25;100073.28;;;19.74;56.90
39449;BME280;25151;45.566;9.382;2023-12-04T15:24:51;100066.91;;;19.74;56.86
39449;BME280;25151;45.566;9.382;2023-12-04T15:27:18;100065.34;;;19.73;56.94
39449;BME280;25151;45.566;9.382;2023-12-04T15:29:45;100065.34;;;19.73;56.78
39449;BME280;25151;45.566;9.382;2023-12-04T15:32:12;100055.34;;;19.72;57.13
39449;BME280;25151;45.566;9.382;2023-12-04T15:34:38;100049.75;;;19.72;57.12
39449;BME280;25151;45.566;9.382;2023-12-04T15:37:05;100049.34;;;19.73;57.12
39449;BME280;25151;45.566;9.382;2023-12-04T15:39:36;100035.75;;;19.72;57.24
39449;BME280;25151;45.566;9.382;2023-12-04T15:42:03;100035.75;;;19.72;57.13
39449;BME280;25151;45.566;9.382;2023-12-04T15:44:32;100035.75;;;19.72;57.28
39449;BME280;25151;45.566;9.382;2023-12-04T15:46:58;100044.16;;;19.72;57.41
39449;BME280;25151;45.566;9.382;2023-12-04T15:49:25;100038.56;;;19.72;57.42
39449;BME280;25151;45.566;9.382;2023-12-04T15:51:51;100036.56;;;19.72;57.22
39449;BME280;25151;45.566;9.382;2023-12-04T15:54:18;100038.56;;;19.72;57.34
39449;BME280;25151;45.566;9.382;2023-12-04T15:56:44;100042.97;;;19.73;57.16
39449;BME280;25151;45.566;9.382;2023-12-04T15:59:10;100037.78;;;19.71;57.44
39449;BME280;25151;45.566;9.382;2023-12-04T16:01:36;100033.78;;;19.72;57.67
39449;BME280;25151;45.566;9.382;2023-12-04T16:04:04;100037.34;;;19.73;57.33
39449;BME280;25151;45.566;9.382;2023-12-04T16:06:31;100027.75;;;19.74;57.45
39449;BME280;25151;45.566;9.382;2023-12-04T16:08:58;100026.16;;;19.73;57.34
39449;BME280;25151;45.566;9.382;2023-12-04T16:11:25;100033.78;;;19.72;57.49
39449;BME280;25151;45.566;9.382;2023-12-04T16:13:51;100024.16;;;19.73;57.46
39449;BME280;25151;45.566;9.382;2023-12-04T16:16:18;100031.75;;;19.73;57.48
39449;BME280;25151;45.566;9.382;2023-12-04T16:18:44;100031.75;;;19.73;57.77
39449;BME280;25151;45.566;9.382;2023-12-04T16:21:10;100034.19;;;19.71;57.52
39449;BME280;25151;45.566;9.382;2023-12-04T16:23:39;100045.38;;;19.71;57.64
39449;BME280;25151;45.566;9.382;2023-12-04T16:26:06;100040.56;;;19.71;57.70
39449;BME280;25151;45.566;9.382;2023-12-04T16:28:32;100038.22;;;19.70;57.65
39449;BME280;25151;45.566;9.382;2023-12-04T16:30:57;100039.47;;;19.69;57.79
39449;BME280;25151;45.566;9.382;2023-12-04T16:33:23;100039.47;;;19.69;57.57
39449;BME280;25151;45.566;9.382;2023-12-04T16:35:48;100040.25;;;19.69;57.82
39449;BME280;25151;45.566;9.382;2023-12-04T16:38:14;100042.25;;;19.69;57.84
39449;BME280;25151;45.566;9.382;2023-12-04T16:40:40;100035.88;;;19.68;57.79
39449;BME280;25151;45.566;9.382;2023-12-04T16:43:07;100035.06;;;19.68;57.81
39449;BME280;25151;45.566;9.382;2023-12-04T16:45:34;100031.50;;;19.67;57.99
39449;BME280;25151;45.566;9.382;2023-12-04T16:48:01;100027.50;;;19.68;57.48
39449;BME280;25151;45.566;9.382;2023-12-04T16:50:29;100030.72;;;19.67;57.39
39449;BME280;25151;45.566;9.382;2023-12-04T16:52:58;100030.38;;;19.64;57.58
39449;BME280;25151;45.566;9.382;2023-12-04T16:55:26;100029.91;;;19.66;57.50
39449;BME280;25151;45.566;9.382;2023-12-04T16:57:53;100028.78;;;19.63;57.65
39449;BME280;25151;45.566;9.382;2023-12-04T17:00:24;100035.88;;;19.68;57.38
39449;BME280;25151;45.566;9.382;2023-12-04T17:02:50;100032.63;;;19.70;57.47
39449;BME280;25151;45.566;9.382;2023-12-04T17:05:15;100033.88;;;19.69;57.50
39449;BME280;25151;45.566;9.382;2023-12-04T17:07:41;100027.91;;;19.67;57.64
39449;BME280;25151;45.566;9.382;2023-12-04T17:10:07;100019.19;;;19.64;57.67
39449;BME280;25151;45.566;9.382;2023-12-04T17:12:39;100020.06;;;19.61;57.79
39449;BME280;25151;45.566;9.382;2023-12-04T17:15:14;100018.81;;;19.62;57.61
39449;BME280;25151;45.566;9.382;2023-12-04T17:17:42;100021.63;;;19.62;57.73
39449;BME280;25151;45.566;9.382;2023-12-04T17:20:08;100021.25;;;19.60;57.79
39449;BME280;25151;45.566;9.382;2023-12-04T17:22:33;100028.06;;;19.59;57.87
39449;BME280;25151;45.566;9.382;2023-12-04T17:25:00;100020.88;;;19.58;57.90
39449;BME280;25151;45.566;9.382;2023-12-04T17:27:26;100026.47;;;19.58;57.85
39449;BME280;25151;45.566;9.382;2023-12-04T17:29:51;100017.75;;;19.56;58.03
39449;BME280;25151;45.566;9.382;2023-12-04T17:32:18;100017.75;;;19.56;58.16
39449;BME280;25151;45.566;9.382;2023-12-04T17:34:44;100021.75;;;19.55;58.01
39449;BME280;25151;45.566;9.382;2023-12-04T17:37:09;100021.75;;;19.55;58.13
39449;BME280;25151;45.566;9.382;2023-12-04T17:39:35;100019.41;;;19.54;58.33
39449;BME280;25151;45.566;9.382;2023-12-04T17:42:00;100031.38;;;19.54;58.27
39449;BME280;25151;45.566;9.382;2023-12-04T17:44:26;100029.81;;;19.53;58.20
39449;BME280;25151;45.566;9.382;2023-12-04T17:46:52;100018.63;;;19.53;58.37
39449;BME280;25151;45.566;9.382;2023-12-04T17:49:18;100021.84;;;19.52;58.28
39449;BME280;25151;45.566;9.382;2023-12-04T17:51:43;100022.66;;;19.52;58.39
39449;BME280;25151;45.566;9.382;2023-12-04T17:54:09;100024.63;;;19.52;58.28
39449;BME280;25151;45.566;9.382;2023-12-04T17:56:35;100030.69;;;19.50;58.35
39449;BME280;25151;45.566;9.382;2023-12-04T17:59:01;100013.91;;;19.50;58.51
39449;BME280;25151;45.566;9.382;2023-12-04T18:01:27;100010.66;;;19.52;58.24
39449;BME280;25151;45.566;9.382;2023-12-04T18:03:53;100012.66;;;19.51;58.40
39449;BME280;25151;45.566;9.382;2023-12-04T18:06:29;100015.84;;;19.53;58.51
39449;BME280;25151;45.566;9.382;2023-12-04T18:08:55;100014.59;;;19.54;58.55
39449;BME280;25151;45.566;9.382;2023-12-04T18:11:21;100010.56;;;19.55;58.58
39449;BME280;25151;45.566;9.382;2023-12-04T18:13:47;100004.97;;;19.55;58.48
39449;BME280;25151;45.566;9.382;2023-12-04T18:16:13;100013.72;;;19.57;58.44
39449;BME280;25151;45.566;9.382;2023-12-04T18:18:39;100016.84;;;19.59;58.47
39449;BME280;25151;45.566;9.382;2023-12-04T18:21:06;100016.44;;;19.61;58.44
39449;BME280;25151;45.566;9.382;2023-12-04T18:23:31;100014.78;;;19.63;58.38
39449;BME280;25151;45.566;9.382;2023-12-04T18:25:58;100009.88;;;19.68;58.19
39449;BME280;25151;45.566;9.382;2023-12-04T18:28:27;100014.28;;;19.69;58.41
39449;BME280;25151;45.566;9.382;2023-12-04T18:30:52;100011.41;;;19.72;58.47
39449;BME280;25151;45.566;9.382;2023-12-04T18:33:19;100009.28;;;19.76;58.03
39449;BME280;25151;45.566;9.382;2023-12-04T18:35:44;100020.41;;;19.80;58.03
39449;BME280;25151;45.566;9.382;2023-12-04T18:40:35;100011.78;;;19.87;58.09
39449;BME280;25151;45.566;9.382;2023-12-04T18:43:01;100009.69;;;19.91;58.15
39449;BME280;25151;45.566;9.382;2023-12-04T18:45:27;100007.56;;;19.95;58.11
39449;BME280;25151;45.566;9.382;2023-12-04T18:47:58;100006.16;;;20.03;57.66
39449;BME280;25151;45.566;9.382;2023-12-04T18:50:25;100002.75;;;20.12;57.76
39449;BME280;25151;45.566;9.382;2023-12-04T18:52:53;100005.47;;;20.16;57.89
39449;BME280;25151;45.566;9.382;2023-12-04T18:55:19;100003.66;;;20.22;58.04
39449;BME280;25151;45.566;9.382;2023-12-04T18:57:46;100002.25;;;20.30;57.42
39449;BME280;25151;45.566;9.382;2023-12-04T19:00:13;99989.28;;;20.36;57.41
39449;BME280;25151;45.566;9.382;2023-12-04T19:02:40;99986.72;;;20.42;57.65
39449;BME280;25151;45.566;9.382;2023-12-04T19:05:09;99990.53;;;20.48;57.42
39449;BME280;25151;45.566;9.382;2023-12-04T19:07:36;99989.25;;;20.52;57.33
39449;BME280;25151;45.566;9.382;2023-12-04T19:10:03;99973.09;;;20.56;57.42
39449;BME280;25151;45.566;9.382;2023-12-04T19:12:35;99980.63;;;20.59;57.30
39449;BME280;25151;45.566;9.382;2023-12-04T19:15:02;99973.34;;;20.62;57.30
39449;BME280;25151;45.566;9.382;2023-12-04T19:17:29;99968.88;;;20.65;57.20
39449;BME280;25151;45.566;9.382;2023-12-04T19:19:56;99965.97;;;20.68;57.38
39449;BME280;25151;45.566;9.382;2023-12-04T19:22:23;99972.34;;;20.69;57.19
39449;BME280;25151;45.566;9.382;2023-12-04T19:24:51;99969.88;;;20.71;57.34
39449;BME280;25151;45.566;9.382;2023-12-04T19:27:18;99968.66;;;20.72;57.25
39449;BME280;25151;45.566;9.382;2023-12-04T19:29:45;99965.84;;;20.72;57.07
39449;BME280;25151;45.566;9.382;2023-12-04T19:32:13;99960.56;;;20.74;57.36
39449;BME280;25151;45.566;9.382;2023-12-04T19:34:42;99967.41;;;20.73;57.28
39449;BME280;25151;45.566;9.382;2023-12-04T19:37:11;99959.00;;;20.73;57.45
39449;BME280;25151;45.566;9.382;2023-12-04T19:39:38;99956.19;;;20.73;57.61
39449;BME280;25151;45.566;9.382;2023-12-04T19:42:06;99961.81;;;20.73;57.33
39449;BME280;25151;45.566;9.382;2023-12-04T19:44:37;99957.00;;;20.73;57.52
39449;BME280;25151;45.566;9.382;2023-12-04T19:47:06;99961.03;;;20.72;57.63
39449;BME280;25151;45.566;9.382;2023-12-04T19:49:35;99954.63;;;20.72;57.24
39449;BME280;25151;45.566;9.382;2023-12-04T19:52:07;99954.63;;;20.72;57.40
39449;BME280;25151;45.566;9.382;2023-12-04T19:54:34;99953.88;;;20.71;57.63